Железногорск-Илимский

Карта отелей и гостиниц, располагающихся рядом с аэропортом Железногорск-Илимский :

Железногорск-Илимский Иркутская область 56° 29' 16.3788" N, 104° 6' 14.2812" E
Железногорск-Илимский Иркутская область 56° 29' 16.3788" N, 104° 6' 14.2812" E
Код аэродрома ИКАО
UIBV
Код аэродрома RU
УИБЖ
Координаты
N56.48788° E104.10397°
Превышение над уровнем моря
592
Основная полоса
10/28
Курс магнитный
099/279
Длина основной ВПП
1400
Ширина основной ВПП
44
Покрытие основной ВПП
Твёрдое (цементобетон)
Освещение ВПП
Нет
Тип: 
Аэродром
Класс аэродрома: 
Принадлежность: 
ГА
Статус: 
Действующий
Сайт: 
E-mail аэродрома: 
Страна: 
Россия
Регион: 
Иркутская область
Город: 
Дополнительная информация: 
Горный. Оператор: Унитарное муниципальное предприятие "Аэропорт Железногорск". PCN 10/R/C/X/T.

Найти трансфер

С помощью этой формы Вы можете найти трансфер из аэропорта Железногорск-Илимский в город, аэропорт или вокзал:

Карта места

Javascript is required to view this map.

Погода в аэропортах:

Авиационная погода в Уфе

Регион: 
Погода METAR: 
UWUU 171830Z 25004MPS 9999 -SHRA OVC025CB 07/05 Q1012 R32L/290244 NOSIG
Время наблюдения
2021-09-17T18:30:00Z
Температура C
7.0
Точка росы
5.0
Направление ветра
250
Скорость ветра (узлы)
8
Метео видимость
6.21
Явления погоды
-SHRA
Условия полета
MVFR
Аэропорт подробнее: 

Авиационная погода в Курске

Погода METAR: 
UUOK 171830Z 10007MPS 9999 -RA NSC 09/07 Q1015 R12/290050 NOSIG RMK QFE743/0991
Время наблюдения
2021-09-17T18:30:00Z
Температура C
9.0
Точка росы
7.0
Направление ветра
100
Скорость ветра (узлы)
14
Метео видимость
6.21
Явления погоды
-RA
Условия полета
VFR
Аэропорт подробнее: 

Авиационная погода в Закаталы

Регион: 
Погода METAR: 
UBBY 171900Z 12006KT 9999 VCTS SCT030CB OVC070 18/18 Q1019 R33/////// NOSIG RMK MT OBSC
Время наблюдения
2021-09-17T19:00:00Z
Температура C
18.0
Точка росы
18.0
Направление ветра
120
Скорость ветра (узлы)
6
Метео видимость
6.21
Явления погоды
VCTS
Условия полета
VFR

Авиационная погода в Толмачево

Регион: 
Погода METAR: 
UNNT 171830Z 31005MPS 9999 -SHRA SCT010 BKN051CB 10/10 Q0997 R25/290155 R34/////// NOSIG RMK QFE738/0984
Время наблюдения
2021-09-17T18:30:00Z
Температура C
10.0
Точка росы
10.0
Направление ветра
310
Скорость ветра (узлы)
10
Метео видимость
6.21
Явления погоды
-SHRA
Условия полета
VFR
Аэропорт подробнее: